Time;durP1;ratioP1;P1;durP2;ratioP2;P2;SDS_P1;SDS_P2;PMS_P1;PMS_P2;Temp;Humidity;BMP_temperature;BMP_pressure;BME280_temperature;BME280_humidity;BME280_pressure;Samples;Min_cycle;Max_cycle;Signal;HPM_P1;HPM_P2
2022/04/26 03:38:02;;;;;;;;;48.00;38.50;;;;;8.39;73.90;100697.19;4998176;28;45367;-63
2022/04/26 03:40:28;;;;;;;;;49.75;40.50;;;;;8.39;73.88;100692.81;4998355;28;45448;-62
2022/04/26 03:42:53;;;;;;;;;47.25;41.00;;;;;8.36;73.40;100689.41;4997992;28;45617;-62
2022/04/26 03:45:19;;;;;;;;;40.25;36.25;;;;;8.34;73.29;100695.56;4997685;28;45519;-62
2022/04/26 03:47:44;;;;;;;;;43.50;38.75;;;;;8.34;73.45;100703.41;4997792;28;45396;-63
2022/04/26 03:50:10;;;;;;;;;50.75;41.25;;;;;8.34;73.62;100697.34;4997834;28;45441;-62
2022/04/26 03:52:35;;;;;;;;;46.25;37.50;;;;;8.31;74.38;100694.81;4979261;28;47206;-64
2022/04/26 03:55:02;;;;;;;;;50.75;40.25;;;;;8.33;74.00;100691.22;4979471;28;45719;-62
2022/04/26 03:57:27;;;;;;;;;48.75;39.25;;;;;8.34;73.77;100694.72;4997576;28;45384;-64
2022/04/26 03:59:53;;;;;;;;;43.25;38.25;;;;;8.37;74.14;100696.38;4997533;28;45283;-63
2022/04/26 04:02:19;;;;;;;;;50.75;38.75;;;;;8.39;73.61;100694.56;4996907;28;46277;-64
2022/04/26 04:04:45;;;;;;;;;51.00;42.75;;;;;8.39;73.88;100694.56;4997208;28;45368;-65
2022/04/26 04:07:10;;;;;;;;;54.75;42.75;;;;;8.38;73.87;100703.34;4997054;28;45386;-63
2022/04/26 04:09:36;;;;;;;;;49.50;38.75;;;;;8.37;73.53;100704.25;4997410;28;45552;-62
2022/04/26 04:12:01;;;;;;;;;46.25;38.75;;;;;8.42;73.67;100718.06;4996815;28;45555;-64
2022/04/26 04:14:26;;;;;;;;;50.75;40.50;;;;;8.44;73.87;100716.25;4997219;28;45227;-65
2022/04/26 04:16:53;;;;;;;;;50.75;41.00;;;;;8.46;73.23;100711.81;4997016;28;45406;-63
2022/04/26 04:19:20;;;;;;;;;53.50;42.75;;;;;8.51;73.52;100714.38;4997372;28;45340;-62
2022/04/26 04:21:47;;;;;;;;;56.75;44.25;;;;;8.50;73.27;100720.50;4996784;28;45476;-63
2022/04/26 04:24:13;;;;;;;;;52.75;43.50;;;;;8.48;73.56;100716.13;4996995;28;45911;-62
2022/04/26 04:26:39;;;;;;;;;50.50;40.75;;;;;8.50;74.20;100717.88;4996777;28;45301;-62
2022/04/26 04:29:05;;;;;;;;;52.00;40.25;;;;;8.46;74.04;100719.69;4996866;28;45297;-62
2022/04/26 04:31:32;;;;;;;;;50.00;42.00;;;;;8.43;74.11;100728.53;4996874;28;46388;-61
2022/04/26 04:33:57;;;;;;;;;53.25;41.25;;;;;8.43;74.01;100732.88;4997059;28;45187;-62
2022/04/26 04:36:23;;;;;;;;;52.25;40.50;;;;;8.43;74.31;100731.16;4996966;28;45639;-63
2022/04/26 04:38:48;;;;;;;;;51.50;41.00;;;;;8.41;74.45;100730.31;4996879;28;45184;-61
2022/04/26 04:41:14;;;;;;;;;55.50;42.75;;;;;8.41;74.69;100735.56;4996244;28;46124;-62
2022/04/26 04:43:40;;;;;;;;;51.75;42.00;;;;;8.42;73.97;100734.66;4996412;28;45281;-61
2022/04/26 04:46:05;;;;;;;;;49.75;40.50;;;;;8.51;74.36;100745.81;4996595;28;45993;-62
2022/04/26 04:48:30;;;;;;;;;52.00;41.50;;;;;8.52;74.43;100745.78;4996872;28;45433;-62
2022/04/26 04:50:56;;;;;;;;;51.50;41.75;;;;;8.52;74.15;100737.94;4996358;28;46310;-62
2022/04/26 04:53:21;;;;;;;;;52.00;42.25;;;;;8.55;74.44;100750.94;4996373;28;47224;-63
2022/04/26 04:55:47;;;;;;;;;53.50;41.75;;;;;8.53;74.65;100750.13;4996208;28;45855;-62
2022/04/26 04:58:13;;;;;;;;;43.50;35.75;;;;;8.57;74.21;100757.00;4996604;28;45459;-62
2022/04/26 05:00:38;;;;;;;;;51.00;40.50;;;;;8.58;74.02;100752.59;4996215;28;46388;-61
2022/04/26 05:03:04;;;;;;;;;53.25;43.00;;;;;8.66;74.23;100765.50;4996279;28;45321;-61
2022/04/26 05:05:30;;;;;;;;;59.25;43.50;;;;;8.69;73.73;100758.41;4996422;28;45361;-62
2022/04/26 05:07:56;;;;;;;;;56.25;45.25;;;;;8.75;73.30;100757.38;4996344;28;45663;-63
2022/04/26 05:10:21;;;;;;;;;57.75;45.50;;;;;8.73;74.13;100767.03;4995838;28;46582;-64
2022/04/26 05:12:47;;;;;;;;;52.50;42.75;;;;;8.73;73.87;100767.88;4995741;28;45241;-64
2022/04/26 05:15:12;;;;;;;;;60.25;47.25;;;;;8.82;74.47;100761.53;4996125;28;45318;-61
2022/04/26 05:17:37;;;;;;;;;53.50;43.50;;;;;8.94;73.73;100776.00;4995969;28;45472;-64
2022/04/26 05:20:04;;;;;;;;;60.50;44.25;;;;;9.03;73.46;100780.13;4996034;28;46481;-61
2022/04/26 05:22:30;;;;;;;;;54.00;42.00;;;;;9.04;73.52;100779.22;4996118;28;45378;-63
2022/04/26 05:24:58;;;;;;;;;55.50;45.25;;;;;9.09;73.03;100789.59;4996125;28;45345;-63
2022/04/26 05:27:28;;;;;;;;;58.50;48.25;;;;;9.13;73.36;100781.56;4994756;28;45411;-63
2022/04/26 05:29:55;;;;;;;;;55.25;45.75;;;;;9.21;72.78;100800.56;4995366;28;46541;-62
2022/04/26 05:32:21;;;;;;;;;55.75;44.75;;;;;9.21;72.54;100797.94;4995181;28;45369;-63
2022/04/26 05:34:47;;;;;;;;;56.50;43.00;;;;;9.24;72.38;100801.38;4995815;28;45460;-65
2022/04/26 05:37:12;;;;;;;;;55.25;45.00;;;;;9.27;72.60;100809.16;4995947;28;45422;-64
2022/04/26 05:39:38;;;;;;;;;62.25;49.25;;;;;9.29;72.75;100807.34;4995706;28;46386;-64
2022/04/26 05:42:03;;;;;;;;;59.00;47.00;;;;;9.33;72.44;100812.47;4982541;28;45346;-64
2022/04/26 05:44:29;;;;;;;;;58.25;45.75;;;;;9.39;72.26;100816.66;4995538;28;45317;-66
2022/04/26 05:46:54;;;;;;;;;58.75;46.00;;;;;9.42;72.08;100815.69;4995886;28;45449;-64
2022/04/26 05:49:20;;;;;;;;;62.00;49.25;;;;;9.47;72.38;100827.75;4994072;28;46544;-64
2022/04/26 05:51:45;;;;;;;;;64.50;49.50;;;;;9.56;71.92;100828.41;4994782;28;45344;-63
2022/04/26 05:54:10;;;;;;;;;60.25;50.00;;;;;9.59;71.66;100829.16;4994822;28;45341;-64
2022/04/26 05:56:35;;;;;;;;;60.25;47.75;;;;;9.60;71.74;100823.00;4994840;28;45577;-64
2022/04/26 05:59:01;;;;;;;;;61.75;48.25;;;;;9.63;71.13;100833.41;4995597;28;48353;-65
2022/04/26 06:01:26;;;;;;;;;65.50;49.25;;;;;9.64;71.22;100826.38;4995344;28;45379;-66
2022/04/26 06:03:51;;;;;;;;;59.00;46.75;;;;;9.69;71.28;100827.09;4995595;28;45247;-65
2022/04/26 06:06:17;;;;;;;;;60.75;47.00;;;;;9.71;71.02;100829.66;4995511;28;45282;-64
2022/04/26 06:08:42;;;;;;;;;64.00;47.75;;;;;9.79;71.09;100820.63;4995169;28;45529;-65
2022/04/26 06:11:08;;;;;;;;;60.00;48.50;;;;;9.89;70.77;100830.84;4977868;28;45349;-64
2022/04/26 06:13:33;;;;;;;;;67.00;51.00;;;;;9.96;70.83;100821.84;4996115;28;45588;-62
2022/04/26 06:15:59;;;;;;;;;62.00;50.25;;;;;10.08;70.32;100828.47;4994033;28;45511;-64
2022/04/26 06:18:25;;;;;;;;;67.25;51.50;;;;;10.21;70.08;100818.34;4994933;28;45476;-63
2022/04/26 06:20:50;;;;;;;;;66.00;51.50;;;;;10.45;69.62;100826.31;4995141;28;45428;-64
2022/04/26 06:23:15;;;;;;;;;65.50;49.75;;;;;10.60;69.04;100815.28;4995153;28;45322;-64
2022/04/26 06:25:41;;;;;;;;;66.75;52.00;;;;;10.69;68.53;100815.84;4993394;28;45587;-63
2022/04/26 06:28:08;;;;;;;;;75.67;64.33;;;;;10.72;67.87;100823.63;4994605;28;48604;-64
2022/04/26 06:30:37;;;;;;;;;67.25;49.00;;;;;10.70;68.42;100828.09;4994925;28;45275;-65
2022/04/26 06:33:02;;;;;;;;;59.00;46.75;;;;;10.72;68.03;100829.72;4999831;28;45487;-62
2022/04/26 06:35:27;;;;;;;;;65.00;51.00;;;;;10.74;68.32;100827.06;5010181;28;45265;-62
2022/04/26 06:37:53;;;;;;;;;61.75;48.75;;;;;10.76;68.13;100846.28;5014439;28;46185;-64
2022/04/26 06:40:18;;;;;;;;;62.50;51.75;;;;;10.80;68.09;100847.88;5011000;28;45702;-64
2022/04/26 06:42:44;;;;;;;;;67.25;52.00;;;;;10.86;67.36;100842.38;4996023;28;45450;-64
2022/04/26 06:45:09;;;;;;;;;61.25;49.25;;;;;10.90;67.77;100846.63;4998104;28;45702;-63
2022/04/26 06:47:35;;;;;;;;;62.25;50.25;;;;;10.91;67.22;100850.97;5001740;28;46753;-65
2022/04/26 06:50:00;;;;;;;;;62.25;48.00;;;;;10.96;67.58;100850.78;5013061;28;45389;-65
2022/04/26 06:52:28;;;;;;;;;60.50;47.75;;;;;11.10;66.91;100850.28;5013738;28;45405;-64
2022/04/26 06:54:53;;;;;;;;;67.00;50.25;;;;;11.23;66.88;100848.03;4994068;28;45566;-62
2022/04/26 06:57:19;;;;;;;;;61.00;46.50;;;;;11.31;66.34;100842.44;4994642;28;46224;-63
2022/04/26 06:59:44;;;;;;;;;65.00;50.00;;;;;11.31;65.78;100850.34;4994842;28;45491;-64
2022/04/26 07:02:10;;;;;;;;;63.75;49.75;;;;;11.36;65.94;100848.41;4993460;28;45646;-63
2022/04/26 07:04:35;;;;;;;;;65.25;48.25;;;;;11.44;65.80;100853.38;4995231;28;45160;-63
2022/04/26 07:07:00;;;;;;;;;59.00;48.50;;;;;11.54;64.82;100854.72;4997080;28;45491;-63
2022/04/26 07:09:26;;;;;;;;;62.25;48.75;;;;;11.59;64.85;100849.25;4998152;28;45201;-63
2022/04/26 07:11:52;;;;;;;;;61.75;49.25;;;;;11.72;64.50;100862.81;4998059;28;45284;-64
2022/04/26 07:14:18;;;;;;;;;62.25;49.75;;;;;11.78;64.05;100866.06;4998267;28;45277;-64
2022/04/26 07:16:49;;;;;;;;;62.75;50.75;;;;;11.70;64.35;100849.72;4997732;28;45384;-63
2022/04/26 07:19:15;;;;;;;;;66.00;51.00;;;;;11.93;64.08;100863.72;4997938;28;45464;-62
2022/04/26 07:21:44;;;;;;;;;62.25;49.75;;;;;12.00;63.71;100867.84;4997824;28;45334;-63
2022/04/26 07:24:10;;;;;;;;;63.50;50.25;;;;;12.03;62.68;100867.72;4998213;28;45341;-63
2022/04/26 07:26:36;;;;;;;;;67.50;50.75;;;;;12.00;62.88;100873.13;4997704;28;46640;-63
2022/04/26 07:29:02;;;;;;;;;63.75;51.25;;;;;11.94;63.07;100873.34;4997181;28;45311;-62
2022/04/26 07:31:29;;;;;;;;;68.00;51.50;;;;;11.96;63.07;100864.44;4997077;28;45531;-64
2022/04/26 07:36:39;;;;;;;;;63.25;48.50;;;;;12.08;63.15;100871.03;4997620;28;45688;-65
2022/04/26 07:39:05;;;;;;;;;64.25;49.00;;;;;12.08;62.52;100873.66;4997270;28;45200;-65
2022/04/26 07:41:30;;;;;;;;;62.25;51.00;;;;;12.19;62.78;100878.47;4997347;28;45184;-64
2022/04/26 07:43:56;;;;;;;;;57.25;46.00;;;;;12.27;62.15;100889.56;4997599;28;45292;-65
2022/04/26 07:46:21;;;;;;;;;64.75;52.00;;;;;12.26;62.21;100894.91;4997406;28;45337;-65
2022/04/26 07:48:47;;;;;;;;;67.25;50.75;;;;;12.34;62.00;100898.06;4997336;28;45409;-68
2022/04/26 07:51:12;;;;;;;;;63.00;49.00;;;;;12.49;61.69;100898.34;4997079;28;45211;-66
2022/04/26 07:53:38;;;;;;;;;59.25;48.50;;;;;12.57;61.78;100902.38;4997709;28;45282;-65
2022/04/26 07:56:05;;;;;;;;;65.25;51.50;;;;;12.60;61.41;100897.88;4997144;28;45761;-66
2022/04/26 07:58:32;;;;;;;;;55.50;45.00;;;;;12.68;60.79;100901.88;4997273;28;45344;-66
2022/04/26 08:00:58;;;;;;;;;53.75;42.75;;;;;12.76;60.90;100911.28;4997247;28;45434;-65
2022/04/26 08:03:23;;;;;;;;;65.00;47.50;;;;;12.83;59.82;100908.28;4997410;28;45499;-65
2022/04/26 08:05:49;;;;;;;;;57.00;46.00;;;;;12.98;59.74;100914.66;4996842;28;45320;-65
2022/04/26 08:08:15;;;;;;;;;59.50;46.25;;;;;13.13;59.28;100913.09;4996801;28;45338;-65
2022/04/26 08:10:40;;;;;;;;;55.25;44.50;;;;;13.26;59.04;100918.69;4997116;28;45338;-65
2022/04/26 08:13:06;;;;;;;;;64.75;47.25;;;;;13.37;58.72;100915.56;4997031;28;45338;-65
2022/04/26 08:15:31;;;;;;;;;60.25;47.75;;;;;13.48;57.68;100923.00;4996870;28;46430;-65
2022/04/26 08:17:56;;;;;;;;;63.25;48.75;;;;;13.40;57.68;100922.47;4996378;28;45271;-65
2022/04/26 08:20:24;;;;;;;;;58.00;45.00;;;;;13.46;57.90;100924.00;4996830;28;45324;-65
2022/04/26 08:22:49;;;;;;;;;61.75;47.75;;;;;13.52;57.03;100927.19;4995429;28;45393;-65
2022/04/26 08:27:58;;;;;;;;;64.25;48.75;;;;;13.71;56.80;100923.69;4996485;28;45684;-64
2022/04/26 08:30:24;;;;;;;;;58.50;44.75;;;;;13.98;56.28;100932.06;4996819;28;45449;-66
2022/04/26 08:32:50;;;;;;;;;62.75;49.50;;;;;14.22;55.54;100938.88;4996767;28;45511;-65
2022/04/26 08:35:19;;;;;;;;;60.00;48.00;;;;;14.25;55.08;100939.56;4996585;28;46417;-66
2022/04/26 08:37:44;;;;;;;;;53.75;44.00;;;;;14.12;55.01;100939.34;4996495;28;45356;-65
2022/04/26 08:40:10;;;;;;;;;57.50;45.25;;;;;13.97;55.60;100948.03;4996015;28;45279;-66
2022/04/26 08:42:44;;;;;;;;;57.25;46.50;;;;;13.91;55.49;100948.34;4996746;28;45541;-65
2022/04/26 08:45:12;;;;;;;;;56.50;44.00;;;;;13.86;55.20;100951.19;4996386;28;45530;-65
2022/04/26 08:53:08;;;;;;;;;60.00;45.50;;;;;14.16;54.43;100963.84;4996339;28;45355;-66
2022/04/26 08:55:42;;;;;;;;;57.75;47.50;;;;;14.14;54.34;100963.94;4996152;28;45590;-65
2022/04/26 08:58:10;;;;;;;;;58.00;46.00;;;;;14.06;54.65;100973.16;4994575;28;45321;-65
2022/04/26 09:00:36;;;;;;;;;63.25;48.75;;;;;13.85;55.02;100971.50;4994480;28;45354;-64
2022/04/26 09:03:04;;;;;;;;;61.25;46.75;;;;;13.83;54.69;100968.06;4995953;28;45551;-65
2022/04/26 09:05:31;;;;;;;;;58.75;46.25;;;;;13.81;54.83;100971.69;4996570;28;46489;-64
2022/04/26 09:07:58;;;;;;;;;57.00;45.25;;;;;13.75;54.44;100972.00;4996412;28;45386;-65
2022/04/26 09:10:24;;;;;;;;;56.00;45.75;;;;;13.70;54.88;100964.28;4996137;28;45300;-64
2022/04/26 09:13:09;;;;;;;;;54.00;42.25;;;;;13.86;54.29;100981.16;4994728;28;45407;-65
2022/04/26 09:15:42;;;;;;;;;56.75;42.25;;;;;14.09;53.83;100983.59;4995706;28;45365;-63
2022/04/26 09:18:20;;;;;;;;;50.75;43.50;;;;;14.37;53.81;100975.16;4995775;28;45319;-65
2022/04/26 09:20:48;;;;;;;;;60.75;48.00;;;;;14.64;53.09;100990.59;4996341;28;45681;-65
2022/04/26 09:23:18;;;;;;;;;58.75;46.00;;;;;14.68;53.08;100986.00;4996354;28;45416;-64
2022/04/26 09:25:44;;;;;;;;;55.75;44.25;;;;;14.90;52.60;100993.75;4995690;28;46463;-65
2022/04/26 09:28:19;;;;;;;;;61.25;47.75;;;;;15.02;52.99;101000.19;4994922;28;45438;-65
2022/04/26 09:30:44;;;;;;;;;55.75;45.25;;;;;15.13;52.42;101000.47;4996146;28;45469;-65
2022/04/26 09:33:10;;;;;;;;;59.25;46.25;;;;;15.13;51.91;101005.75;4995973;28;45459;-64
2022/04/26 09:35:35;;;;;;;;;61.25;49.00;;;;;14.88;52.13;101003.56;4995600;28;45737;-65
2022/04/26 09:38:01;;;;;;;;;62.25;47.50;;;;;14.61;52.21;101004.84;4995873;28;45528;-65
2022/04/26 09:40:32;;;;;;;;;61.25;47.00;;;;;14.54;53.05;101010.50;4995648;28;45481;-66
2022/04/26 09:42:58;;;;;;;;;56.75;45.00;;;;;14.53;52.84;101000.84;4995620;28;45607;-64
2022/04/26 09:45:25;;;;;;;;;56.25;45.75;;;;;14.54;52.83;101010.50;4995403;28;46038;-64
2022/04/26 09:47:56;;;;;;;;;60.00;47.50;;;;;14.53;52.43;101008.81;4995514;28;45499;-65
2022/04/26 09:50:22;;;;;;;;;61.75;47.75;;;;;14.55;52.57;101009.59;4995330;28;45330;-65
2022/04/26 09:52:47;;;;;;;;;63.50;48.50;;;;;14.54;52.57;101007.88;4995603;28;45408;-64
2022/04/26 09:55:13;;;;;;;;;53.00;42.75;;;;;14.60;52.45;101020.78;4995483;28;46364;-64
2022/04/26 09:57:39;;;;;;;;;63.75;49.75;;;;;14.55;52.74;101014.88;4995360;28;45509;-65
2022/04/26 10:00:10;;;;;;;;;61.00;47.75;;;;;14.51;52.83;101019.47;4995404;28;45387;-65
2022/04/26 10:02:38;;;;;;;;;56.00;46.00;;;;;14.53;53.15;101022.03;4995605;28;45333;-66
2022/04/26 10:05:06;;;;;;;;;57.50;45.75;;;;;14.54;53.09;101024.63;4995144;28;45337;-65
2022/04/26 10:07:36;;;;;;;;;59.50;48.25;;;;;14.71;53.46;101025.59;4994852;28;45370;-65
2022/04/26 10:10:06;;;;;;;;;62.25;49.00;;;;;14.90;53.48;101018.41;4995234;28;45277;-65
2022/04/26 10:12:33;;;;;;;;;63.25;50.25;;;;;15.22;52.93;101024.78;4993750;28;45592;-66
2022/04/26 10:15:01;;;;;;;;;64.50;49.75;;;;;15.35;52.12;101009.91;4994777;28;45424;-66
2022/04/26 10:17:28;;;;;;;;;56.50;44.50;;;;;15.60;51.49;101032.50;4994587;28;45301;-65
2022/04/26 10:19:53;;;;;;;;;61.50;48.25;;;;;15.58;50.61;101024.59;4993299;28;45310;-65
2022/04/26 10:22:54;;;;;;;;;61.50;47.25;;;;;15.70;51.42;101030.19;4994984;28;45670;-66
2022/04/26 10:25:21;;;;;;;;;52.75;43.25;;;;;15.87;50.90;101022.16;4994884;28;46076;-65
2022/04/26 10:28:21;;;;;;;;;52.50;42.00;;;;;16.04;50.02;101017.75;4995475;28;45247;-65
2022/04/26 10:30:50;;;;;;;;;54.25;44.00;;;;;16.01;49.50;101025.88;4994724;28;45396;-65
2022/04/26 10:33:35;;;;;;;;;61.00;47.25;;;;;15.94;48.95;101038.63;4995482;28;45254;-66
2022/04/26 10:36:35;;;;;;;;;55.50;45.75;;;;;15.72;49.12;101036.25;4994276;28;45354;-66
2022/04/26 10:39:07;;;;;;;;;55.00;43.75;;;;;15.72;49.01;101038.91;4994521;28;45355;-64
2022/04/26 10:41:38;;;;;;;;;54.25;43.75;;;;;15.89;49.33;101027.41;5001048;28;45343;-65
2022/04/26 10:44:12;;;;;;;;;57.00;43.75;;;;;16.16;48.33;101038.28;5001178;28;45378;-64
2022/04/26 10:46:50;;;;;;;;;54.25;42.25;;;;;16.30;48.45;101039.28;4999135;28;47354;-66
2022/04/26 10:49:23;;;;;;;;;54.50;44.50;;;;;16.45;48.10;101038.41;5001231;28;45311;-65
2022/04/26 10:51:51;;;;;;;;;52.75;42.50;;;;;16.53;47.19;101032.66;5001236;28;45380;-65
2022/04/26 10:54:45;;;;;;;;;57.00;45.50;;;;;16.76;48.31;101033.94;5001589;28;45557;-66
2022/04/26 10:57:11;;;;;;;;;59.75;47.25;;;;;17.11;47.23;101030.16;5000806;28;45430;-66
2022/04/26 10:59:47;;;;;;;;;56.75;43.50;;;;;17.46;47.25;101034.28;5000043;28;45476;-65
2022/04/26 11:02:15;;;;;;;;;50.75;42.75;;;;;17.71;45.82;101011.44;5000770;28;45245;-66
2022/04/26 11:04:40;;;;;;;;;56.00;44.25;;;;;17.94;45.46;101028.63;5000633;28;45552;-66
2022/04/26 11:07:17;;;;;;;;;49.25;40.50;;;;;18.11;45.37;101030.22;5000560;28;45928;-65
2022/04/26 11:09:50;;;;;;;;;54.00;44.00;;;;;18.28;45.19;101029.09;5000707;28;45357;-66
2022/04/26 11:12:17;;;;;;;;;49.25;41.25;;;;;18.39;44.71;101026.59;5000516;28;45321;-66
2022/04/26 11:14:43;;;;;;;;;50.50;42.25;;;;;18.70;44.76;101021.03;5000907;28;45561;-66
2022/04/26 11:17:08;;;;;;;;;54.25;42.50;;;;;18.83;42.81;101031.72;4999093;28;48229;-67
2022/04/26 11:19:36;;;;;;;;;53.25;43.50;;;;;18.64;43.46;101022.31;5000629;28;45357;-65
2022/04/26 11:22:09;;;;;;;;;53.25;42.25;;;;;18.36;43.53;101018.81;5000664;28;45263;-65
2022/04/26 11:30:06;;;;;;;;;52.50;40.00;;;;;17.96;44.41;101030.22;5000883;28;45449;-66
2022/04/26 11:32:43;;;;;;;;;53.00;42.75;;;;;17.79;44.09;101023.31;5000499;28;45298;-67
2022/04/26 11:35:10;;;;;;;;;48.00;39.25;;;;;17.70;44.60;101028.38;5000665;28;45256;-67
2022/04/26 11:37:50;;;;;;;;;47.50;40.00;;;;;17.66;44.85;101030.38;5000481;28;46328;-66
2022/04/26 11:40:27;;;;;;;;;49.25;40.75;;;;;17.82;45.09;101030.25;5000913;28;45337;-65
2022/04/26 11:42:56;;;;;;;;;50.25;40.50;;;;;17.93;44.32;101027.75;5000857;28;45259;-65
2022/04/26 11:45:28;;;;;;;;;53.75;42.00;;;;;18.01;44.59;101026.44;5000736;28;45550;-65
2022/04/26 11:47:54;;;;;;;;;47.75;38.25;;;;;17.96;43.54;101027.56;4998813;28;48095;-66
2022/04/26 11:50:23;;;;;;;;;49.00;39.00;;;;;17.78;44.27;101031.38;5000423;28;45389;-66
2022/04/26 11:52:50;;;;;;;;;50.75;41.50;;;;;17.74;44.25;101032.53;4996776;28;45292;-66
2022/04/26 11:55:30;;;;;;;;;50.00;40.00;;;;;17.83;44.43;101034.63;4997394;28;45574;-65
2022/04/26 11:58:17;;;;;;;;;49.75;41.75;;;;;18.04;44.25;101035.09;4997053;28;46403;-65
2022/04/26 12:00:59;;;;;;;;;47.25;40.50;;;;;18.09;44.08;101038.31;4995271;28;45403;-65
2022/04/26 12:03:28;;;;;;;;;47.00;37.00;;;;;18.07;44.27;101040.22;4996793;28;45412;-65
2022/04/26 12:06:05;;;;;;;;;48.75;39.50;;;;;18.06;44.07;101037.66;4997138;28;45512;-64
2022/04/26 12:08:36;;;;;;;;;56.75;46.75;;;;;18.10;44.21;101033.84;4996323;28;46121;-65
2022/04/26 12:11:22;;;;;;;;;40.25;34.00;;;;;18.27;44.14;101032.72;4996144;28;45464;-65
2022/04/26 12:14:00;;;;;;;;;47.00;39.25;;;;;18.54;43.93;101040.72;4996343;28;45365;-65
2022/04/26 12:16:27;;;;;;;;;48.25;39.50;;;;;18.61;43.08;101029.63;4995441;28;45394;-65
2022/04/26 12:18:57;;;;;;;;;43.50;36.00;;;;;18.54;42.73;101032.72;4996624;28;45372;-65
2022/04/26 12:21:26;;;;;;;;;40.75;35.75;;;;;18.54;43.02;101032.72;4979327;28;45334;-65
2022/04/26 12:24:11;;;;;;;;;44.50;37.00;;;;;18.69;42.92;101008.66;4996820;28;45270;-66
2022/04/26 12:26:36;;;;;;;;;41.00;34.25;;;;;19.03;41.96;101032.19;4978910;28;45230;-66
2022/04/26 12:29:11;;;;;;;;;44.00;35.75;;;;;18.89;41.92;101031.31;4996317;28;46259;-66
2022/04/26 12:31:44;;;;;;;;;47.50;40.00;;;;;18.68;42.77;101045.13;4996013;28;45259;-66
2022/04/26 12:34:16;;;;;;;;;45.25;38.00;;;;;18.42;42.86;101038.88;4996379;28;45413;-65
2022/04/26 12:36:55;;;;;;;;;41.50;35.00;;;;;18.23;43.00;101034.75;4996386;28;45313;-65
2022/04/26 12:39:22;;;;;;;;;41.25;35.00;;;;;17.98;42.87;101031.91;4996575;28;46297;-65
2022/04/26 12:41:49;;;;;;;;;45.25;36.00;;;;;17.91;42.89;101037.63;4995986;28;45359;-66
2022/04/26 12:44:15;;;;;;;;;40.25;35.25;;;;;17.92;43.32;101035.84;4996307;28;45429;-65
2022/04/26 12:50:27;;;;;;;;;43.50;33.50;;;;;17.88;43.67;101021.88;4996489;28;45464;-65
2022/04/26 12:52:47;;;;;;;;;37.50;33.50;;;;;17.98;43.53;101029.25;4995693;28;45386;-66
2022/04/26 12:55:13;;;;;;;;;43.00;37.00;;;;;18.00;43.42;101022.94;4995660;28;45253;-65
2022/04/26 12:57:50;;;;;;;;;42.00;33.50;;;;;18.17;42.84;101013.84;4978453;28;45267;-66
2022/04/26 13:00:18;;;;;;;;;42.50;33.00;;;;;18.30;42.44;101013.88;4995951;28;45416;-65
2022/04/26 13:02:44;;;;;;;;;37.50;32.50;;;;;18.54;42.44;101016.72;4995454;28;45381;-66
2022/04/26 13:05:10;;;;;;;;;42.50;34.50;;;;;18.77;41.72;101016.16;4995341;28;45333;-66
2022/04/26 13:07:37;;;;;;;;;32.75;30.50;;;;;18.94;41.41;101013.19;4995008;28;45251;-64
2022/04/26 13:10:03;;;;;;;;;34.25;31.00;;;;;19.06;41.04;101010.66;4995944;28;46179;-65
2022/04/26 13:12:28;;;;;;;;;33.25;30.25;;;;;19.11;41.01;101009.38;4977745;28;45541;-65
2022/04/26 13:14:53;;;;;;;;;51.50;42.50;;;;;19.07;40.49;101018.53;4995713;28;45328;-64
2022/04/26 13:17:21;;;;;;;;;39.75;34.50;;;;;18.91;41.11;101017.84;4995725;28;45239;-65
2022/04/26 13:19:47;;;;;;;;;35.50;32.00;;;;;18.98;41.25;101013.84;4995183;28;46352;-65
2022/04/26 13:22:12;;;;;;;;;37.75;32.50;;;;;19.09;40.96;101010.44;4995840;28;45413;-65
2022/04/26 13:24:38;;;;;;;;;34.50;31.25;;;;;19.10;41.05;101005.00;4995909;28;45405;-65
2022/04/26 13:27:03;;;;;;;;;36.00;33.25;;;;;19.14;40.67;101012.81;4995955;28;45400;-65
2022/04/26 13:29:29;;;;;;;;;41.50;33.25;;;;;19.08;40.65;101009.56;4995200;28;46215;-66
2022/04/26 13:31:54;;;;;;;;;36.25;31.00;;;;;18.95;40.84;101006.88;4993960;28;45515;-66
2022/04/26 13:34:19;;;;;;;;;36.75;32.00;;;;;18.83;40.77;101007.72;4995628;28;45299;-65
2022/04/26 13:36:46;;;;;;;;;33.75;30.00;;;;;18.74;40.87;101006.53;4993996;28;45284;-66
2022/04/26 13:39:11;;;;;;;;;30.00;28.25;;;;;18.68;40.64;100998.97;4995034;28;46025;-65
2022/04/26 13:41:37;;;;;;;;;25.75;25.75;;;;;18.72;40.78;101019.13;4994937;28;45331;-65
2022/04/26 13:44:02;;;;;;;;;35.75;30.25;;;;;18.71;41.15;101009.41;4995129;28;45254;-65
2022/04/26 13:46:27;;;;;;;;;29.50;29.50;;;;;18.80;41.29;101003.44;4995707;28;45248;-65
2022/04/26 13:48:53;;;;;;;;;40.25;34.75;;;;;18.98;40.88;100998.72;4994869;28;45246;-65
2022/04/26 13:51:19;;;;;;;;;30.75;28.75;;;;;19.10;40.90;100999.69;4994975;28;45366;-65
2022/04/26 13:53:45;;;;;;;;;33.25;30.00;;;;;19.21;40.34;100985.59;4995336;28;45278;-65
2022/04/26 13:56:10;;;;;;;;;34.75;31.25;;;;;19.60;40.24;100988.19;4995087;28;45320;-65
2022/04/26 13:58:35;;;;;;;;;30.25;29.75;;;;;19.93;39.72;100980.53;4994719;28;45478;-65
2022/04/26 14:01:01;;;;;;;;;30.50;29.00;;;;;20.23;40.01;100980.09;4994864;28;45337;-66
2022/04/26 14:03:29;;;;;;;;;33.50;32.00;;;;;20.33;38.92;100979.41;4995160;28;45815;-64
2022/04/26 14:05:55;;;;;;;;;31.75;29.75;;;;;20.37;38.57;100978.19;4995249;28;45518;-65
2022/04/26 14:08:20;;;;;;;;;34.25;29.50;;;;;20.31;38.30;100976.00;4994479;28;46209;-65
2022/04/26 14:10:46;;;;;;;;;36.75;30.75;;;;;20.05;38.60;100970.75;4993126;28;45606;-65
2022/04/26 14:13:11;;;;;;;;;30.00;28.25;;;;;19.94;39.25;100979.59;4994741;28;45183;-64
2022/04/26 14:23:48;;;;;;;;;30.50;26.50;;;;;20.32;38.49;100973.19;4994684;28;45338;-65
2022/04/26 14:26:14;;;;;;;;;31.50;29.50;;;;;20.22;38.71;100978.41;4994698;28;45570;-64
2022/04/26 14:28:39;;;;;;;;;33.75;29.00;;;;;20.18;38.52;100970.72;4994395;28;45315;-64
2022/04/26 14:31:04;;;;;;;;;32.50;29.25;;;;;20.20;39.08;100969.66;4994255;28;45352;-65
2022/04/26 14:33:31;;;;;;;;;26.00;26.00;;;;;20.12;38.49;100964.00;4994886;28;45281;-67
2022/04/26 14:35:57;;;;;;;;;27.75;25.25;;;;;19.96;38.29;100967.81;4995052;28;45157;-64
2022/04/26 14:38:22;;;;;;;;;23.25;22.50;;;;;19.98;38.19;100971.22;4994618;28;45215;-65
2022/04/26 14:40:48;;;;;;;;;28.50;25.75;;;;;20.13;38.34;100969.25;4993181;28;45404;-65
2022/04/26 14:43:14;;;;;;;;;25.50;24.00;;;;;20.17;37.84;100969.88;4994656;28;45287;-64
2022/04/26 14:45:45;;;;;;;;;25.25;25.00;;;;;20.06;36.85;100984.00;4994861;28;45392;-65
2022/04/26 14:48:11;;;;;;;;;24.00;23.25;;;;;19.83;37.12;100972.31;4992761;28;47346;-66
2022/04/26 14:50:38;;;;;;;;;23.75;21.50;;;;;19.66;37.46;100985.06;4994069;28;45381;-65
2022/04/26 14:53:04;;;;;;;;;20.50;20.50;;;;;19.57;36.95;100985.75;4994262;28;45277;-66
2022/04/26 14:55:29;;;;;;;;;20.00;20.00;;;;;19.41;37.11;100983.31;4994548;28;45179;-66
2022/04/26 14:57:55;;;;;;;;;26.25;23.75;;;;;19.12;37.15;100984.44;4993863;28;46229;-65
2022/04/26 15:00:20;;;;;;;;;20.00;20.00;;;;;19.01;37.51;100978.97;4994147;28;45254;-66
2022/04/26 15:02:45;;;;;;;;;20.50;17.75;;;;;18.96;37.73;100973.06;4994496;28;45277;-64
2022/04/26 15:05:11;;;;;;;;;18.50;18.50;;;;;19.01;37.86;100978.97;4994435;28;45458;-65
2022/04/26 15:10:21;;;;;;;;;16.75;15.75;;;;;19.12;37.11;100980.91;4994017;28;45360;-65
2022/04/26 15:18:15;;;;;;;;;19.75;19.50;;;;;19.25;37.54;100975.56;4993822;28;45687;-65
2022/04/26 15:20:45;;;;;;;;;19.75;19.75;;;;;19.24;37.55;100980.03;4992491;28;46251;-67
2022/04/26 15:23:11;;;;;;;;;23.75;22.50;;;;;19.20;37.61;100980.38;4994036;28;45329;-65
2022/04/26 15:25:36;;;;;;;;;21.75;18.25;;;;;19.17;37.71;100975.25;4994130;28;45582;-66
2022/04/26 15:28:02;;;;;;;;;20.25;19.25;;;;;19.11;37.98;100981.84;4996701;28;45236;-65